sensor_id;sensor_type;location;lat;lon;timestamp;P1;durP1;ratioP1;P2;durP2;ratioP2
20609;SDS011;10463;52.378;9.688;2023-06-10T00:01:49;3.43;;;3.13;;
20609;SDS011;10463;52.378;9.688;2023-06-10T00:04:34;3.93;;;3.40;;
20609;SDS011;10463;52.378;9.688;2023-06-10T00:07:20;3.40;;;3.10;;
20609;SDS011;10463;52.378;9.688;2023-06-10T00:10:07;5.67;;;3.40;;
20609;SDS011;10463;52.378;9.688;2023-06-10T00:12:52;3.70;;;3.10;;
20609;SDS011;10463;52.378;9.688;2023-06-10T00:15:37;4.00;;;3.10;;
20609;SDS011;10463;52.378;9.688;2023-06-10T00:18:22;3.33;;;3.03;;
20609;SDS011;10463;52.378;9.688;2023-06-10T00:21:07;3.50;;;3.10;;
20609;SDS011;10463;52.378;9.688;2023-06-10T00:23:52;4.10;;;3.70;;
20609;SDS011;10463;52.378;9.688;2023-06-10T00:26:38;3.73;;;3.43;;
20609;SDS011;10463;52.378;9.688;2023-06-10T00:29:25;4.70;;;3.70;;
20609;SDS011;10463;52.378;9.688;2023-06-10T00:32:10;3.90;;;3.50;;
20609;SDS011;10463;52.378;9.688;2023-06-10T00:34:55;3.30;;;3.00;;
20609;SDS011;10463;52.378;9.688;2023-06-10T00:37:40;4.30;;;3.30;;
20609;SDS011;10463;52.378;9.688;2023-06-10T00:40:24;3.57;;;3.07;;
20609;SDS011;10463;52.378;9.688;2023-06-10T00:43:11;3.37;;;3.07;;
20609;SDS011;10463;52.378;9.688;2023-06-10T00:45:55;4.90;;;2.97;;
20609;SDS011;10463;52.378;9.688;2023-06-10T00:48:41;3.70;;;2.90;;
20609;SDS011;10463;52.378;9.688;2023-06-10T00:51:27;3.50;;;2.83;;
20609;SDS011;10463;52.378;9.688;2023-06-10T00:54:12;5.27;;;2.87;;
20609;SDS011;10463;52.378;9.688;2023-06-10T00:57:00;3.63;;;3.33;;
20609;SDS011;10463;52.378;9.688;2023-06-10T00:59:48;3.37;;;3.03;;
20609;SDS011;10463;52.378;9.688;2023-06-10T01:02:33;3.10;;;2.80;;
20609;SDS011;10463;52.378;9.688;2023-06-10T01:05:18;3.20;;;2.90;;
20609;SDS011;10463;52.378;9.688;2023-06-10T01:08:09;5.30;;;3.40;;
20609;SDS011;10463;52.378;9.688;2023-06-10T01:11:00;4.23;;;3.17;;
20609;SDS011;10463;52.378;9.688;2023-06-10T01:13:48;3.23;;;2.93;;
20609;SDS011;10463;52.378;9.688;2023-06-10T01:16:36;3.87;;;3.20;;
20609;SDS011;10463;52.378;9.688;2023-06-10T01:19:25;4.43;;;3.10;;
20609;SDS011;10463;52.378;9.688;2023-06-10T01:22:11;3.37;;;3.07;;
20609;SDS011;10463;52.378;9.688;2023-06-10T01:25:00;3.43;;;2.80;;
20609;SDS011;10463;52.378;9.688;2023-06-10T01:27:47;3.57;;;2.70;;
20609;SDS011;10463;52.378;9.688;2023-06-10T01:30:37;3.17;;;2.87;;
20609;SDS011;10463;52.378;9.688;2023-06-10T01:33:31;3.17;;;2.80;;
20609;SDS011;10463;52.378;9.688;2023-06-10T01:36:20;3.47;;;3.10;;
20609;SDS011;10463;52.378;9.688;2023-06-10T01:39:09;3.17;;;2.67;;
20609;SDS011;10463;52.378;9.688;2023-06-10T01:41:55;3.47;;;3.17;;
20609;SDS011;10463;52.378;9.688;2023-06-10T01:44:41;3.57;;;3.13;;
20609;SDS011;10463;52.378;9.688;2023-06-10T01:47:26;3.30;;;2.87;;
20609;SDS011;10463;52.378;9.688;2023-06-10T01:50:10;3.30;;;2.60;;
20609;SDS011;10463;52.378;9.688;2023-06-10T01:52:57;4.80;;;3.50;;
20609;SDS011;10463;52.378;9.688;2023-06-10T01:55:43;4.03;;;2.60;;
20609;SDS011;10463;52.378;9.688;2023-06-10T01:58:28;3.63;;;3.00;;
20609;SDS011;10463;52.378;9.688;2023-06-10T02:01:13;5.37;;;3.27;;
20609;SDS011;10463;52.378;9.688;2023-06-10T02:03:58;4.37;;;3.10;;
20609;SDS011;10463;52.378;9.688;2023-06-10T02:06:43;3.57;;;2.77;;
20609;SDS011;10463;52.378;9.688;2023-06-10T02:09:27;3.50;;;2.73;;
20609;SDS011;10463;52.378;9.688;2023-06-10T02:12:17;5.53;;;3.43;;
20609;SDS011;10463;52.378;9.688;2023-06-10T02:15:02;2.90;;;2.70;;
20609;SDS011;10463;52.378;9.688;2023-06-10T02:17:47;3.67;;;2.80;;
20609;SDS011;10463;52.378;9.688;2023-06-10T02:20:33;3.37;;;2.93;;
20609;SDS011;10463;52.378;9.688;2023-06-10T02:23:17;5.23;;;2.73;;
20609;SDS011;10463;52.378;9.688;2023-06-10T02:26:02;4.13;;;2.80;;
20609;SDS011;10463;52.378;9.688;2023-06-10T02:28:48;3.80;;;2.67;;
20609;SDS011;10463;52.378;9.688;2023-06-10T02:31:33;3.33;;;2.77;;
20609;SDS011;10463;52.378;9.688;2023-06-10T02:34:20;4.10;;;2.40;;
20609;SDS011;10463;52.378;9.688;2023-06-10T02:37:06;3.17;;;2.60;;
20609;SDS011;10463;52.378;9.688;2023-06-10T02:39:51;3.43;;;3.13;;
20609;SDS011;10463;52.378;9.688;2023-06-10T02:42:36;3.70;;;2.87;;
20609;SDS011;10463;52.378;9.688;2023-06-10T02:45:23;3.37;;;2.80;;
20609;SDS011;10463;52.378;9.688;2023-06-10T02:48:08;4.17;;;3.10;;
20609;SDS011;10463;52.378;9.688;2023-06-10T02:50:53;3.03;;;2.70;;
20609;SDS011;10463;52.378;9.688;2023-06-10T02:53:49;2.90;;;2.60;;
20609;SDS011;10463;52.378;9.688;2023-06-10T02:56:33;3.40;;;2.80;;
20609;SDS011;10463;52.378;9.688;2023-06-10T02:59:21;6.00;;;3.00;;
20609;SDS011;10463;52.378;9.688;2023-06-10T03:02:07;3.23;;;2.63;;
20609;SDS011;10463;52.378;9.688;2023-06-10T03:04:59;3.13;;;2.83;;
20609;SDS011;10463;52.378;9.688;2023-06-10T03:07:46;3.60;;;2.83;;
20609;SDS011;10463;52.378;9.688;2023-06-10T03:10:32;5.03;;;3.13;;
20609;SDS011;10463;52.378;9.688;2023-06-10T03:13:18;3.73;;;3.03;;
20609;SDS011;10463;52.378;9.688;2023-06-10T03:16:03;3.80;;;2.83;;
20609;SDS011;10463;52.378;9.688;2023-06-10T03:18:52;4.30;;;3.20;;
20609;SDS011;10463;52.378;9.688;2023-06-10T03:21:37;3.00;;;2.50;;
20609;SDS011;10463;52.378;9.688;2023-06-10T03:24:23;4.83;;;3.07;;
20609;SDS011;10463;52.378;9.688;2023-06-10T03:27:08;3.40;;;3.10;;
20609;SDS011;10463;52.378;9.688;2023-06-10T03:29:54;4.70;;;3.17;;
20609;SDS011;10463;52.378;9.688;2023-06-10T03:32:40;4.93;;;3.13;;
20609;SDS011;10463;52.378;9.688;2023-06-10T03:35:29;3.40;;;3.10;;
20609;SDS011;10463;52.378;9.688;2023-06-10T03:38:14;4.70;;;3.60;;
20609;SDS011;10463;52.378;9.688;2023-06-10T03:40:58;3.93;;;3.53;;
20609;SDS011;10463;52.378;9.688;2023-06-10T03:43:43;3.70;;;3.30;;
20609;SDS011;10463;52.378;9.688;2023-06-10T03:46:30;3.73;;;3.30;;
20609;SDS011;10463;52.378;9.688;2023-06-10T03:49:14;4.80;;;3.20;;
20609;SDS011;10463;52.378;9.688;2023-06-10T03:52:02;3.03;;;2.67;;
20609;SDS011;10463;52.378;9.688;2023-06-10T03:54:48;3.67;;;3.10;;
20609;SDS011;10463;52.378;9.688;2023-06-10T03:57:32;3.50;;;2.77;;
20609;SDS011;10463;52.378;9.688;2023-06-10T04:00:17;4.03;;;2.93;;
20609;SDS011;10463;52.378;9.688;2023-06-10T04:03:05;3.43;;;3.13;;
20609;SDS011;10463;52.378;9.688;2023-06-10T04:05:56;4.70;;;2.97;;
20609;SDS011;10463;52.378;9.688;2023-06-10T04:08:44;3.20;;;2.90;;
20609;SDS011;10463;52.378;9.688;2023-06-10T04:11:29;4.37;;;3.03;;
20609;SDS011;10463;52.378;9.688;2023-06-10T04:14:15;3.90;;;3.10;;
20609;SDS011;10463;52.378;9.688;2023-06-10T04:17:01;3.67;;;3.27;;
20609;SDS011;10463;52.378;9.688;2023-06-10T04:19:47;5.23;;;3.60;;
20609;SDS011;10463;52.378;9.688;2023-06-10T04:22:32;3.10;;;2.80;;
20609;SDS011;10463;52.378;9.688;2023-06-10T04:25:18;3.77;;;3.40;;
20609;SDS011;10463;52.378;9.688;2023-06-10T04:28:06;3.43;;;2.80;;
20609;SDS011;10463;52.378;9.688;2023-06-10T04:30:51;3.43;;;3.13;;
20609;SDS011;10463;52.378;9.688;2023-06-10T04:33:37;4.40;;;3.40;;
20609;SDS011;10463;52.378;9.688;2023-06-10T04:36:23;4.00;;;3.37;;
20609;SDS011;10463;52.378;9.688;2023-06-10T04:39:09;3.93;;;3.10;;
20609;SDS011;10463;52.378;9.688;2023-06-10T04:41:56;3.73;;;3.20;;
20609;SDS011;10463;52.378;9.688;2023-06-10T04:44:41;3.53;;;3.00;;
20609;SDS011;10463;52.378;9.688;2023-06-10T04:47:26;4.20;;;3.30;;
20609;SDS011;10463;52.378;9.688;2023-06-10T04:50:10;3.57;;;3.27;;
20609;SDS011;10463;52.378;9.688;2023-06-10T04:52:56;4.00;;;3.40;;
20609;SDS011;10463;52.378;9.688;2023-06-10T04:55:41;4.23;;;3.57;;
20609;SDS011;10463;52.378;9.688;2023-06-10T04:58:29;4.33;;;3.47;;
20609;SDS011;10463;52.378;9.688;2023-06-10T05:01:14;3.93;;;3.40;;
20609;SDS011;10463;52.378;9.688;2023-06-10T05:03:58;4.10;;;3.10;;
20609;SDS011;10463;52.378;9.688;2023-06-10T05:06:43;3.50;;;2.97;;
20609;SDS011;10463;52.378;9.688;2023-06-10T05:09:28;3.60;;;2.83;;
20609;SDS011;10463;52.378;9.688;2023-06-10T05:12:13;5.13;;;3.10;;
20609;SDS011;10463;52.378;9.688;2023-06-10T05:14:59;4.30;;;3.13;;
20609;SDS011;10463;52.378;9.688;2023-06-10T05:17:44;4.90;;;3.17;;
20609;SDS011;10463;52.378;9.688;2023-06-10T05:20:28;3.30;;;3.00;;
20609;SDS011;10463;52.378;9.688;2023-06-10T05:23:13;3.90;;;2.63;;
20609;SDS011;10463;52.378;9.688;2023-06-10T05:25:58;3.37;;;3.07;;
20609;SDS011;10463;52.378;9.688;2023-06-10T05:28:43;5.40;;;3.07;;
20609;SDS011;10463;52.378;9.688;2023-06-10T05:31:29;3.73;;;3.10;;
20609;SDS011;10463;52.378;9.688;2023-06-10T05:34:13;3.20;;;2.90;;
20609;SDS011;10463;52.378;9.688;2023-06-10T05:36:58;3.27;;;2.80;;
20609;SDS011;10463;52.378;9.688;2023-06-10T05:39:42;3.20;;;2.90;;
20609;SDS011;10463;52.378;9.688;2023-06-10T05:42:27;3.47;;;2.90;;
20609;SDS011;10463;52.378;9.688;2023-06-10T05:45:12;4.30;;;3.10;;
20609;SDS011;10463;52.378;9.688;2023-06-10T05:47:58;3.93;;;3.53;;
20609;SDS011;10463;52.378;9.688;2023-06-10T05:50:43;4.63;;;3.90;;
20609;SDS011;10463;52.378;9.688;2023-06-10T05:53:32;5.03;;;3.40;;
20609;SDS011;10463;52.378;9.688;2023-06-10T05:56:17;3.40;;;3.10;;
20609;SDS011;10463;52.378;9.688;2023-06-10T05:59:01;4.47;;;4.07;;
20609;SDS011;10463;52.378;9.688;2023-06-10T06:01:46;3.50;;;3.20;;
20609;SDS011;10463;52.378;9.688;2023-06-10T06:04:32;3.47;;;3.17;;
20609;SDS011;10463;52.378;9.688;2023-06-10T06:07:17;4.47;;;3.90;;
20609;SDS011;10463;52.378;9.688;2023-06-10T06:10:05;4.87;;;3.20;;
20609;SDS011;10463;52.378;9.688;2023-06-10T06:12:50;3.80;;;3.40;;
20609;SDS011;10463;52.378;9.688;2023-06-10T06:15:34;4.43;;;3.30;;
20609;SDS011;10463;52.378;9.688;2023-06-10T06:18:19;6.70;;;3.47;;
20609;SDS011;10463;52.378;9.688;2023-06-10T06:21:05;4.93;;;3.70;;
20609;SDS011;10463;52.378;9.688;2023-06-10T06:23:50;3.33;;;3.03;;
20609;SDS011;10463;52.378;9.688;2023-06-10T06:26:34;4.63;;;3.80;;
20609;SDS011;10463;52.378;9.688;2023-06-10T06:29:19;4.90;;;3.43;;
20609;SDS011;10463;52.378;9.688;2023-06-10T06:32:05;3.70;;;3.40;;
20609;SDS011;10463;52.378;9.688;2023-06-10T06:34:50;3.60;;;3.30;;
20609;SDS011;10463;52.378;9.688;2023-06-10T06:37:39;3.50;;;3.03;;
20609;SDS011;10463;52.378;9.688;2023-06-10T06:40:39;3.83;;;3.20;;
20609;SDS011;10463;52.378;9.688;2023-06-10T06:43:24;5.10;;;3.20;;
20609;SDS011;10463;52.378;9.688;2023-06-10T06:46:27;5.00;;;3.20;;
20609;SDS011;10463;52.378;9.688;2023-06-10T06:49:12;3.53;;;3.10;;
20609;SDS011;10463;52.378;9.688;2023-06-10T06:51:57;4.37;;;3.87;;
20609;SDS011;10463;52.378;9.688;2023-06-10T06:54:43;3.67;;;3.37;;
20609;SDS011;10463;52.378;9.688;2023-06-10T06:57:27;3.80;;;3.00;;
20609;SDS011;10463;52.378;9.688;2023-06-10T07:00:12;4.87;;;4.03;;
20609;SDS011;10463;52.378;9.688;2023-06-10T07:02:57;3.83;;;3.43;;
20609;SDS011;10463;52.378;9.688;2023-06-10T07:05:43;3.90;;;2.90;;
20609;SDS011;10463;52.378;9.688;2023-06-10T07:08:28;5.03;;;3.17;;
20609;SDS011;10463;52.378;9.688;2023-06-10T07:11:14;3.80;;;3.40;;
20609;SDS011;10463;52.378;9.688;2023-06-10T07:13:59;3.87;;;2.80;;
20609;SDS011;10463;52.378;9.688;2023-06-10T07:16:43;4.60;;;3.33;;
20609;SDS011;10463;52.378;9.688;2023-06-10T07:19:30;4.63;;;3.87;;
20609;SDS011;10463;52.378;9.688;2023-06-10T07:22:14;3.30;;;3.00;;
20609;SDS011;10463;52.378;9.688;2023-06-10T07:25:00;4.23;;;3.50;;
20609;SDS011;10463;52.378;9.688;2023-06-10T07:27:46;3.93;;;3.30;;
20609;SDS011;10463;52.378;9.688;2023-06-10T07:30:30;3.87;;;3.40;;
20609;SDS011;10463;52.378;9.688;2023-06-10T07:33:15;4.10;;;3.63;;
20609;SDS011;10463;52.378;9.688;2023-06-10T07:35:59;3.60;;;3.10;;
20609;SDS011;10463;52.378;9.688;2023-06-10T07:38:45;4.03;;;3.57;;
20609;SDS011;10463;52.378;9.688;2023-06-10T07:41:29;5.50;;;3.97;;
20609;SDS011;10463;52.378;9.688;2023-06-10T07:44:15;3.83;;;3.50;;
20609;SDS011;10463;52.378;9.688;2023-06-10T07:47:00;4.23;;;3.20;;
20609;SDS011;10463;52.378;9.688;2023-06-10T07:49:45;4.20;;;3.33;;
20609;SDS011;10463;52.378;9.688;2023-06-10T07:52:29;5.27;;;4.07;;
20609;SDS011;10463;52.378;9.688;2023-06-10T07:55:15;4.20;;;3.40;;
20609;SDS011;10463;52.378;9.688;2023-06-10T07:58:00;4.30;;;3.00;;
20609;SDS011;10463;52.378;9.688;2023-06-10T08:00:46;3.53;;;2.93;;
20609;SDS011;10463;52.378;9.688;2023-06-10T08:03:31;4.17;;;3.00;;
20609;SDS011;10463;52.378;9.688;2023-06-10T08:06:15;4.13;;;2.83;;
20609;SDS011;10463;52.378;9.688;2023-06-10T08:09:01;3.50;;;3.20;;
20609;SDS011;10463;52.378;9.688;2023-06-10T08:11:46;3.93;;;3.53;;
20609;SDS011;10463;52.378;9.688;2023-06-10T08:14:31;4.40;;;3.23;;
20609;SDS011;10463;52.378;9.688;2023-06-10T08:17:17;4.50;;;3.50;;
20609;SDS011;10463;52.378;9.688;2023-06-10T08:20:03;3.73;;;3.30;;
20609;SDS011;10463;52.378;9.688;2023-06-10T08:22:48;3.83;;;3.50;;
20609;SDS011;10463;52.378;9.688;2023-06-10T08:25:33;4.10;;;3.40;;
20609;SDS011;10463;52.378;9.688;2023-06-10T08:28:18;3.67;;;3.20;;
20609;SDS011;10463;52.378;9.688;2023-06-10T08:31:03;4.10;;;3.30;;
20609;SDS011;10463;52.378;9.688;2023-06-10T08:33:49;4.00;;;3.50;;
20609;SDS011;10463;52.378;9.688;2023-06-10T08:36:34;4.40;;;3.80;;
20609;SDS011;10463;52.378;9.688;2023-06-10T08:39:19;4.43;;;3.00;;
20609;SDS011;10463;52.378;9.688;2023-06-10T08:42:10;3.97;;;3.47;;
20609;SDS011;10463;52.378;9.688;2023-06-10T08:44:58;4.83;;;3.57;;
20609;SDS011;10463;52.378;9.688;2023-06-10T08:47:45;4.80;;;3.47;;
20609;SDS011;10463;52.378;9.688;2023-06-10T08:50:36;4.10;;;3.70;;
20609;SDS011;10463;52.378;9.688;2023-06-10T08:53:22;4.63;;;2.87;;
20609;SDS011;10463;52.378;9.688;2023-06-10T08:56:08;4.37;;;3.53;;
20609;SDS011;10463;52.378;9.688;2023-06-10T08:58:54;3.83;;;3.43;;
20609;SDS011;10463;52.378;9.688;2023-06-10T09:01:41;4.80;;;3.40;;
20609;SDS011;10463;52.378;9.688;2023-06-10T09:04:26;3.83;;;3.43;;
20609;SDS011;10463;52.378;9.688;2023-06-10T09:07:13;4.57;;;3.83;;
20609;SDS011;10463;52.378;9.688;2023-06-10T09:09:59;3.60;;;3.30;;
20609;SDS011;10463;52.378;9.688;2023-06-10T09:12:48;3.97;;;3.43;;
20609;SDS011;10463;52.378;9.688;2023-06-10T09:15:33;3.63;;;3.30;;
20609;SDS011;10463;52.378;9.688;2023-06-10T09:18:17;4.77;;;3.73;;
20609;SDS011;10463;52.378;9.688;2023-06-10T09:21:02;4.40;;;3.40;;
20609;SDS011;10463;52.378;9.688;2023-06-10T09:23:48;3.40;;;3.10;;
20609;SDS011;10463;52.378;9.688;2023-06-10T09:26:34;3.67;;;3.37;;
20609;SDS011;10463;52.378;9.688;2023-06-10T09:29:21;3.37;;;3.07;;
20609;SDS011;10463;52.378;9.688;2023-06-10T09:32:07;3.70;;;3.40;;
20609;SDS011;10463;52.378;9.688;2023-06-10T09:34:52;3.60;;;3.30;;
20609;SDS011;10463;52.378;9.688;2023-06-10T09:37:38;3.30;;;3.00;;
20609;SDS011;10463;52.378;9.688;2023-06-10T09:40:24;3.33;;;3.03;;
20609;SDS011;10463;52.378;9.688;2023-06-10T09:43:09;3.50;;;3.03;;
20609;SDS011;10463;52.378;9.688;2023-06-10T09:45:56;4.07;;;3.30;;
20609;SDS011;10463;52.378;9.688;2023-06-10T09:48:42;3.37;;;3.07;;
20609;SDS011;10463;52.378;9.688;2023-06-10T09:51:30;3.70;;;3.37;;
20609;SDS011;10463;52.378;9.688;2023-06-10T09:54:15;3.97;;;3.60;;
20609;SDS011;10463;52.378;9.688;2023-06-10T09:57:01;3.20;;;2.60;;
20609;SDS011;10463;52.378;9.688;2023-06-10T09:59:52;4.03;;;3.70;;
20609;SDS011;10463;52.378;9.688;2023-06-10T10:02:44;3.63;;;2.90;;
20609;SDS011;10463;52.378;9.688;2023-06-10T10:05:31;4.07;;;3.27;;
20609;SDS011;10463;52.378;9.688;2023-06-10T10:08:16;4.20;;;3.80;;
20609;SDS011;10463;52.378;9.688;2023-06-10T10:11:01;3.80;;;3.10;;
20609;SDS011;10463;52.378;9.688;2023-06-10T10:13:49;3.27;;;2.90;;
20609;SDS011;10463;52.378;9.688;2023-06-10T10:16:36;4.17;;;3.53;;
20609;SDS011;10463;52.378;9.688;2023-06-10T10:19:28;4.67;;;3.27;;
20609;SDS011;10463;52.378;9.688;2023-06-10T10:22:19;5.73;;;4.20;;
20609;SDS011;10463;52.378;9.688;2023-06-10T10:25:10;3.07;;;2.77;;
20609;SDS011;10463;52.378;9.688;2023-06-10T10:27:59;3.90;;;3.50;;
20609;SDS011;10463;52.378;9.688;2023-06-10T10:30:53;4.10;;;3.20;;
20609;SDS011;10463;52.378;9.688;2023-06-10T10:33:46;3.33;;;3.03;;
20609;SDS011;10463;52.378;9.688;2023-06-10T10:36:37;3.77;;;3.17;;
20609;SDS011;10463;52.378;9.688;2023-06-10T10:39:23;4.27;;;3.13;;
20609;SDS011;10463;52.378;9.688;2023-06-10T10:42:10;3.33;;;3.03;;
20609;SDS011;10463;52.378;9.688;2023-06-10T10:44:55;3.47;;;3.17;;
20609;SDS011;10463;52.378;9.688;2023-06-10T10:47:41;3.30;;;3.00;;
20609;SDS011;10463;52.378;9.688;2023-06-10T10:50:28;3.63;;;3.20;;
20609;SDS011;10463;52.378;9.688;2023-06-10T10:53:15;4.90;;;4.20;;
20609;SDS011;10463;52.378;9.688;2023-06-10T10:56:06;3.73;;;3.43;;
20609;SDS011;10463;52.378;9.688;2023-06-10T10:59:02;3.47;;;3.17;;
20609;SDS011;10463;52.378;9.688;2023-06-10T11:01:48;3.30;;;3.00;;
20609;SDS011;10463;52.378;9.688;2023-06-10T11:04:34;4.07;;;3.60;;
20609;SDS011;10463;52.378;9.688;2023-06-10T11:07:20;4.20;;;3.80;;
20609;SDS011;10463;52.378;9.688;2023-06-10T11:10:07;4.10;;;3.70;;
20609;SDS011;10463;52.378;9.688;2023-06-10T11:12:54;3.80;;;3.50;;
20609;SDS011;10463;52.378;9.688;2023-06-10T11:15:39;3.00;;;2.77;;
20609;SDS011;10463;52.378;9.688;2023-06-10T11:18:28;4.00;;;3.60;;
20609;SDS011;10463;52.378;9.688;2023-06-10T11:21:16;3.03;;;2.73;;
20609;SDS011;10463;52.378;9.688;2023-06-10T11:24:11;3.73;;;3.43;;
20609;SDS011;10463;52.378;9.688;2023-06-10T11:27:16;4.37;;;3.93;;
20609;SDS011;10463;52.378;9.688;2023-06-10T11:30:19;3.77;;;3.13;;
20609;SDS011;10463;52.378;9.688;2023-06-10T11:33:04;4.43;;;4.03;;
20609;SDS011;10463;52.378;9.688;2023-06-10T11:35:50;3.77;;;3.47;;
20609;SDS011;10463;52.378;9.688;2023-06-10T11:38:36;3.40;;;3.10;;
20609;SDS011;10463;52.378;9.688;2023-06-10T11:41:21;3.33;;;3.03;;
20609;SDS011;10463;52.378;9.688;2023-06-10T11:44:08;4.10;;;3.70;;
20609;SDS011;10463;52.378;9.688;2023-06-10T11:46:56;4.10;;;3.70;;
20609;SDS011;10463;52.378;9.688;2023-06-10T11:49:41;4.07;;;3.33;;
20609;SDS011;10463;52.378;9.688;2023-06-10T11:52:29;3.30;;;3.00;;
20609;SDS011;10463;52.378;9.688;2023-06-10T11:55:23;3.70;;;3.40;;
20609;SDS011;10463;52.378;9.688;2023-06-10T11:58:12;3.67;;;3.33;;
20609;SDS011;10463;52.378;9.688;2023-06-10T12:00:58;3.70;;;3.40;;
20609;SDS011;10463;52.378;9.688;2023-06-10T12:03:45;3.67;;;3.37;;
20609;SDS011;10463;52.378;9.688;2023-06-10T12:06:40;3.90;;;3.60;;
20609;SDS011;10463;52.378;9.688;2023-06-10T12:09:27;4.07;;;3.67;;
20609;SDS011;10463;52.378;9.688;2023-06-10T12:12:14;3.60;;;3.30;;
20609;SDS011;10463;52.378;9.688;2023-06-10T12:15:00;3.63;;;3.33;;
20609;SDS011;10463;52.378;9.688;2023-06-10T12:17:47;4.20;;;3.27;;
20609;SDS011;10463;52.378;9.688;2023-06-10T12:20:32;3.40;;;3.10;;
20609;SDS011;10463;52.378;9.688;2023-06-10T12:23:20;3.67;;;3.37;;
20609;SDS011;10463;52.378;9.688;2023-06-10T12:26:07;4.13;;;3.83;;
20609;SDS011;10463;52.378;9.688;2023-06-10T12:28:53;4.70;;;3.50;;
20609;SDS011;10463;52.378;9.688;2023-06-10T12:31:52;3.90;;;3.60;;
20609;SDS011;10463;52.378;9.688;2023-06-10T12:34:39;4.40;;;4.00;;
20609;SDS011;10463;52.378;9.688;2023-06-10T12:37:24;3.97;;;3.67;;
20609;SDS011;10463;52.378;9.688;2023-06-10T12:40:09;4.47;;;4.07;;
20609;SDS011;10463;52.378;9.688;2023-06-10T12:42:55;4.23;;;3.93;;
20609;SDS011;10463;52.378;9.688;2023-06-10T12:45:42;4.70;;;4.30;;
20609;SDS011;10463;52.378;9.688;2023-06-10T12:48:28;4.90;;;4.50;;
20609;SDS011;10463;52.378;9.688;2023-06-10T12:51:13;4.80;;;4.40;;
20609;SDS011;10463;52.378;9.688;2023-06-10T12:53:57;4.00;;;3.70;;
20609;SDS011;10463;52.378;9.688;2023-06-10T12:56:42;4.17;;;3.83;;
20609;SDS011;10463;52.378;9.688;2023-06-10T12:59:27;4.70;;;4.30;;
20609;SDS011;10463;52.378;9.688;2023-06-10T13:02:14;4.80;;;4.40;;
20609;SDS011;10463;52.378;9.688;2023-06-10T13:04:58;4.63;;;4.23;;
20609;SDS011;10463;52.378;9.688;2023-06-10T13:07:43;5.30;;;4.90;;
20609;SDS011;10463;52.378;9.688;2023-06-10T13:10:28;4.67;;;4.27;;
20609;SDS011;10463;52.378;9.688;2023-06-10T13:13:13;4.80;;;4.40;;
20609;SDS011;10463;52.378;9.688;2023-06-10T13:15:58;5.33;;;4.93;;
20609;SDS011;10463;52.378;9.688;2023-06-10T13:18:44;5.30;;;4.80;;
20609;SDS011;10463;52.378;9.688;2023-06-10T13:21:30;5.57;;;5.17;;
20609;SDS011;10463;52.378;9.688;2023-06-10T13:24:15;4.60;;;4.20;;
20609;SDS011;10463;52.378;9.688;2023-06-10T13:27:00;5.97;;;5.37;;
20609;SDS011;10463;52.378;9.688;2023-06-10T13:29:46;4.97;;;4.57;;
20609;SDS011;10463;52.378;9.688;2023-06-10T13:32:30;5.60;;;4.80;;
20609;SDS011;10463;52.378;9.688;2023-06-10T13:35:16;4.27;;;3.97;;
20609;SDS011;10463;52.378;9.688;2023-06-10T13:38:01;4.90;;;4.50;;
20609;SDS011;10463;52.378;9.688;2023-06-10T13:40:46;5.50;;;5.00;;
20609;SDS011;10463;52.378;9.688;2023-06-10T13:43:30;5.17;;;4.77;;
20609;SDS011;10463;52.378;9.688;2023-06-10T13:46:15;5.00;;;4.60;;
20609;SDS011;10463;52.378;9.688;2023-06-10T13:49:00;4.33;;;4.03;;
20609;SDS011;10463;52.378;9.688;2023-06-10T13:51:46;6.33;;;5.43;;
20609;SDS011;10463;52.378;9.688;2023-06-10T13:54:31;5.50;;;5.00;;
20609;SDS011;10463;52.378;9.688;2023-06-10T13:57:16;4.70;;;4.30;;
20609;SDS011;10463;52.378;9.688;2023-06-10T14:00:01;5.50;;;5.10;;
20609;SDS011;10463;52.378;9.688;2023-06-10T14:02:48;5.03;;;4.63;;
20609;SDS011;10463;52.378;9.688;2023-06-10T14:05:32;5.73;;;5.23;;
20609;SDS011;10463;52.378;9.688;2023-06-10T14:08:21;5.20;;;4.80;;
20609;SDS011;10463;52.378;9.688;2023-06-10T14:11:06;6.17;;;5.67;;
20609;SDS011;10463;52.378;9.688;2023-06-10T14:13:50;4.90;;;4.50;;
20609;SDS011;10463;52.378;9.688;2023-06-10T14:16:35;3.90;;;3.60;;
20609;SDS011;10463;52.378;9.688;2023-06-10T14:19:20;4.93;;;4.60;;
20609;SDS011;10463;52.378;9.688;2023-06-10T14:22:05;4.77;;;4.40;;
20609;SDS011;10463;52.378;9.688;2023-06-10T14:24:52;4.60;;;4.20;;
20609;SDS011;10463;52.378;9.688;2023-06-10T14:27:37;4.97;;;4.57;;
20609;SDS011;10463;52.378;9.688;2023-06-10T14:30:22;5.10;;;4.70;;
20609;SDS011;10463;52.378;9.688;2023-06-10T14:33:06;4.43;;;4.13;;
20609;SDS011;10463;52.378;9.688;2023-06-10T14:35:51;4.93;;;4.53;;
20609;SDS011;10463;52.378;9.688;2023-06-10T14:38:35;5.07;;;4.63;;
20609;SDS011;10463;52.378;9.688;2023-06-10T14:41:21;5.27;;;4.87;;
20609;SDS011;10463;52.378;9.688;2023-06-10T14:44:06;5.20;;;4.80;;
20609;SDS011;10463;52.378;9.688;2023-06-10T14:46:50;4.87;;;4.47;;
20609;SDS011;10463;52.378;9.688;2023-06-10T14:49:35;5.93;;;5.43;;
20609;SDS011;10463;52.378;9.688;2023-06-10T14:52:19;5.43;;;5.03;;
20609;SDS011;10463;52.378;9.688;2023-06-10T14:55:05;6.00;;;5.50;;
20609;SDS011;10463;52.378;9.688;2023-06-10T14:57:51;5.77;;;5.27;;
20609;SDS011;10463;52.378;9.688;2023-06-10T15:00:36;4.90;;;4.60;;
20609;SDS011;10463;52.378;9.688;2023-06-10T15:03:20;6.00;;;5.50;;
20609;SDS011;10463;52.378;9.688;2023-06-10T15:06:05;5.00;;;4.60;;
20609;SDS011;10463;52.378;9.688;2023-06-10T15:08:50;5.40;;;5.00;;
20609;SDS011;10463;52.378;9.688;2023-06-10T15:11:34;5.40;;;5.00;;
20609;SDS011;10463;52.378;9.688;2023-06-10T15:14:20;5.60;;;5.10;;
20609;SDS011;10463;52.378;9.688;2023-06-10T15:17:05;5.73;;;5.30;;
20609;SDS011;10463;52.378;9.688;2023-06-10T15:19:50;5.47;;;4.97;;
20609;SDS011;10463;52.378;9.688;2023-06-10T15:22:34;6.07;;;5.57;;
20609;SDS011;10463;52.378;9.688;2023-06-10T15:25:19;5.73;;;5.30;;
20609;SDS011;10463;52.378;9.688;2023-06-10T15:28:05;6.00;;;5.50;;
20609;SDS011;10463;52.378;9.688;2023-06-10T15:30:50;6.13;;;5.63;;
20609;SDS011;10463;52.378;9.688;2023-06-10T15:33:35;5.80;;;5.30;;
20609;SDS011;10463;52.378;9.688;2023-06-10T15:36:20;6.03;;;5.43;;
20609;SDS011;10463;52.378;9.688;2023-06-10T15:39:05;6.67;;;6.03;;
20609;SDS011;10463;52.378;9.688;2023-06-10T15:41:51;6.10;;;5.50;;
20609;SDS011;10463;52.378;9.688;2023-06-10T15:44:35;5.27;;;4.87;;
20609;SDS011;10463;52.378;9.688;2023-06-10T15:47:21;6.40;;;5.90;;
20609;SDS011;10463;52.378;9.688;2023-06-10T15:50:06;5.87;;;5.47;;
20609;SDS011;10463;52.378;9.688;2023-06-10T15:52:51;6.47;;;5.87;;
20609;SDS011;10463;52.378;9.688;2023-06-10T15:55:36;6.80;;;6.30;;
20609;SDS011;10463;52.378;9.688;2023-06-10T15:58:21;6.50;;;6.00;;
20609;SDS011;10463;52.378;9.688;2023-06-10T16:01:06;5.60;;;5.17;;
20609;SDS011;10463;52.378;9.688;2023-06-10T16:03:54;6.60;;;6.10;;
20609;SDS011;10463;52.378;9.688;2023-06-10T16:06:39;6.60;;;6.10;;
20609;SDS011;10463;52.378;9.688;2023-06-10T16:09:23;6.40;;;5.90;;
20609;SDS011;10463;52.378;9.688;2023-06-10T16:12:08;6.40;;;5.80;;
20609;SDS011;10463;52.378;9.688;2023-06-10T16:14:53;6.03;;;5.53;;
20609;SDS011;10463;52.378;9.688;2023-06-10T16:17:38;6.37;;;5.77;;
20609;SDS011;10463;52.378;9.688;2023-06-10T16:20:24;6.03;;;5.53;;
20609;SDS011;10463;52.378;9.688;2023-06-10T16:23:09;6.70;;;6.20;;
20609;SDS011;10463;52.378;9.688;2023-06-10T16:25:54;6.67;;;6.17;;
20609;SDS011;10463;52.378;9.688;2023-06-10T16:28:38;6.20;;;5.70;;
20609;SDS011;10463;52.378;9.688;2023-06-10T16:31:23;6.70;;;6.10;;
20609;SDS011;10463;52.378;9.688;2023-06-10T16:34:08;6.27;;;5.80;;
20609;SDS011;10463;52.378;9.688;2023-06-10T16:36:55;6.50;;;6.00;;
20609;SDS011;10463;52.378;9.688;2023-06-10T16:39:39;6.60;;;6.10;;
20609;SDS011;10463;52.378;9.688;2023-06-10T16:42:24;6.90;;;6.30;;